Epping, New Hampshire
Current Conditions -  °F | °C
As of 7:58 AM on Friday 19 Dec 2014 (Local Time) from KPSM Reporting Station
Few Clouds Few Clouds  
Wind Chill: 23°   Ceiling: Unl
Heat Index: 31°   Visibility: 10mi
Dew Point: 22°   Wind: 8mph
Humidity: 70%   Direction: 280°W
Pressure: 29.89"   Gusts: NA
Location:  43.04°N, 71.08°W
Report Text: KPSM 191258Z 28007KT 10SM FEW035 FEW055 M01/M06 A2989 RMK AO2A SLP126 T10071056
Loading
Personal Weather Stations






























Interactive Weather Map New forecast layout! Learn more

10-Day Weather Forecast

Advertisements
Track Severe Weather on mobile